الصفحة الرئيسية
METAR-TAF:

METAR-TAF

مطار :

فيينتيان, لاوس

مطار واتاي الدولي

دائرة عرض: 17-57N, خط طول: 102-34E, ارتفاع: 171 متر

مراقبة الطقس الحالي

تاريخ ووقت الإصدار 22 دقيقة قبل الساعة 07:00UTC
ريح 4 عقدة من الشمال/الشمال الغربي
درجة الحرارة 30°درجة مئوية
الرطوبة 40%
ضغط 1012 hPa
الرؤية: 8000 متر
غيوم قليلة على ارتفاع 2000 قدم

METAR: VLVT 190700Z 34004KT 8000 FEW020 30/15 Q1012 NOSIG

زمن: 14:22 (07:22 UTC)

توقعات

تاريخ ووقت الإصدار 2ساعات و 22 دقيقة قبل الساعة 05:00UTC
التوقعات صالحة من19 الساعة 06 UTC إلى 20 الساعة 06 UTC
ريح 4 عقدة من الشرق
الرؤية: 7000 متر
غيوم قليلة على ارتفاع 2000 قدم
غيوم قليلة على ارتفاع 20000 قدم
مؤقت
من 19 الساعة 14 UTC إلى 19 الساعة 20 UTC
الرؤية: 4000 متر
غيوم قليلة على ارتفاع 5000 قدم
غيوم قليلة على ارتفاع 20000 قدم
غشاء

TAF: VLVT 190500Z 1906/2006 09004KT 7000 FEW020 FEW200 TEMPO 1914/1920 4000 BR FEW050 FEW200

أرصاد الطقس والتوقعات من أكثر من 4000 مطار (تقارير الطقس للمطار METAR والتنبؤ بالطقس بالمطارTAF).

المحطات المتاحة هي النقط الصفراء والحمراء على الخريطة.

حرك المؤشر فوق النقطة لمعرفة اسم المحطة.

ثم انقر لمعرفة أرصاد وتوقعات الطقس.

لتغيير الخارطة: اضغط على الأزرار الخضراء مع رمز الصليب الأسود للتكبير. على الزر الأخضر مع شرطة للتصغير، أو على الأسهم الخضراء للخرائط المجاورة.


METAR-TAF: